Rhoon, Netherlands
Current Conditions -  °F | °C
As of 10:25 PM on Friday 24 Oct 2014 (Local Time) from EHRD Reporting Station
Rain Showers Rain Showers  
Wind Chill: 54°   Ceiling: 700
Heat Index: 54°   Visibility: 5mi
Dew Point: 54°   Wind: 13mph
Humidity: 100%   Direction: 190°S
Pressure: 29.94"   Gusts: NA
Location:  51.86°N, 4.42°E
Report Text: EHRD 242025Z AUTO 19011KT 160V230 8000 SHRA SCT006 BKN007BKN009 BKN015CB 12/12 Q1014 TEMPO 4000 BKN006 SCT070CB
Loading
Personal Weather Stations






























Interactive Weather Map
Tropical Storm Tracking
New forecast layout! Learn more

10-Day Weather Forecast

Advertisements
Track Severe Weather on mobile